createdAt,value
2019-04-28T00:02:08.413Z,29.82
2019-04-28T00:04:39.088Z,23.80
2019-04-28T00:09:37.756Z,34.25
2019-04-28T00:12:07.744Z,29.90
2019-04-28T00:14:37.599Z,27.60
2019-04-28T00:17:08.243Z,24.85
2019-04-28T00:19:40.733Z,30.57
2019-04-28T00:22:12.558Z,33.78
2019-04-28T00:24:53.138Z,31.40
2019-04-28T00:29:52.085Z,33.88
2019-04-28T00:32:22.016Z,29.27
2019-04-28T00:34:51.890Z,29.45
2019-04-28T00:37:23.366Z,37.25
2019-04-28T00:39:53.267Z,27.50
2019-04-28T00:42:23.138Z,32.88
2019-04-28T00:47:22.691Z,28.30
2019-04-28T00:49:52.512Z,29.42
2019-04-28T00:52:22.411Z,33.67
2019-04-28T00:54:52.900Z,28.92
2019-04-28T00:57:22.733Z,27.32
2019-04-28T00:59:57.982Z,31.07
2019-04-28T01:02:28.361Z,31.60
2019-04-28T01:04:58.175Z,27.75
2019-04-28T01:07:28.035Z,28.03
2019-04-28T01:09:57.901Z,30.48
2019-04-28T01:12:27.796Z,34.58
2019-04-28T01:14:59.671Z,32.53
2019-04-28T01:17:30.816Z,34.63
2019-04-28T01:20:17.431Z,26.17
2019-04-28T01:22:47.225Z,23.57
2019-04-28T01:25:17.119Z,25.77
2019-04-28T01:27:50.418Z,26.07
2019-04-28T01:30:23.149Z,27.80
2019-04-28T01:32:54.615Z,27.00
2019-04-28T01:35:24.462Z,34.95
2019-04-28T01:37:54.297Z,32.30
2019-04-28T01:40:24.256Z,34.70
2019-04-28T01:42:54.158Z,32.48
2019-04-28T01:45:24.001Z,34.30
2019-04-28T01:47:53.969Z,31.82
2019-04-28T01:50:23.713Z,29.82
2019-04-28T01:52:53.535Z,28.33
2019-04-28T01:55:23.347Z,37.45
2019-04-28T01:57:53.255Z,35.23
2019-04-28T02:00:25.572Z,29.02
2019-04-28T02:02:54.748Z,26.85
2019-04-28T02:05:24.591Z,25.82
2019-04-28T02:07:54.514Z,23.92
2019-04-28T02:10:24.366Z,23.00
2019-04-28T02:12:54.176Z,18.37
2019-04-28T02:15:24.029Z,19.70
2019-04-28T02:17:53.907Z,16.40
2019-04-28T02:20:24.214Z,15.93
2019-04-28T02:22:59.882Z,12.45
2019-04-28T02:25:29.915Z,15.40
2019-04-28T02:27:59.760Z,14.07
2019-04-28T02:30:44.056Z,18.15
2019-04-28T02:33:01.843Z,13.60
2019-04-28T02:35:34.105Z,12.85
2019-04-28T02:38:04.304Z,17.57
2019-04-28T02:40:34.072Z,12.47
2019-04-28T02:43:03.914Z,13.20
2019-04-28T02:45:36.414Z,14.30
2019-04-28T02:48:07.893Z,14.40
2019-04-28T02:50:42.407Z,13.03
2019-04-28T02:53:21.077Z,11.35
2019-04-28T02:55:51.466Z,13.22
2019-04-28T02:58:22.383Z,13.43
2019-04-28T03:01:06.750Z,10.82
2019-04-28T03:03:24.079Z,10.93
2019-04-28T03:05:53.895Z,8.83
2019-04-28T03:08:23.656Z,12.95
2019-04-28T03:10:53.466Z,11.90
2019-04-28T03:13:23.362Z,12.35
2019-04-28T03:15:53.181Z,14.10
2019-04-28T03:18:24.530Z,10.40
2019-04-28T03:20:54.279Z,12.35
2019-04-28T03:23:24.037Z,10.90
2019-04-28T03:25:58.150Z,11.67
2019-04-28T03:28:35.594Z,10.60
2019-04-28T03:31:36.720Z,13.05
2019-04-28T03:33:48.043Z,10.82
2019-04-28T03:36:15.027Z,13.83
2019-04-28T03:38:42.833Z,11.57
2019-04-28T03:41:12.675Z,10.82
2019-04-28T03:43:42.499Z,14.47
2019-04-28T03:46:16.589Z,10.63
2019-04-28T03:48:46.398Z,11.65
2019-04-28T03:51:16.199Z,14.85
2019-04-28T03:53:46.114Z,13.05
2019-04-28T03:56:15.959Z,9.20
2019-04-28T03:58:45.713Z,11.30
2019-04-28T04:01:15.610Z,9.15
2019-04-28T04:03:45.573Z,14.50
2019-04-28T04:06:15.451Z,12.85
2019-04-28T04:08:45.261Z,9.95
2019-04-28T04:11:16.639Z,12.45
2019-04-28T04:13:51.485Z,13.93
2019-04-28T04:16:40.543Z,10.93
2019-04-28T04:19:12.171Z,15.15
2019-04-28T04:21:42.109Z,12.10
2019-04-28T04:24:11.954Z,13.28
2019-04-28T04:26:41.849Z,13.48
2019-04-28T04:29:12.079Z,11.73
2019-04-28T04:31:41.925Z,12.00
2019-04-28T04:34:11.757Z,11.90
2019-04-28T04:36:41.976Z,12.63
2019-04-28T04:39:11.858Z,13.28
2019-04-28T04:41:43.706Z,13.03
2019-04-28T04:44:13.272Z,13.65
2019-04-28T04:46:44.010Z,11.63
2019-04-28T04:49:13.862Z,13.62
2019-04-28T04:51:44.099Z,14.35
2019-04-28T04:54:14.105Z,14.95
2019-04-28T04:56:44.054Z,12.45
2019-04-28T04:59:13.881Z,13.10
2019-04-28T05:01:45.396Z,18.42
2019-04-28T05:04:19.773Z,14.20
2019-04-28T05:06:50.668Z,14.15
2019-04-28T05:09:20.430Z,13.22
2019-04-28T05:11:50.265Z,13.95
2019-04-28T05:14:20.141Z,17.77
2019-04-28T05:16:49.991Z,14.93
2019-04-28T05:19:20.079Z,13.72
2019-04-28T05:21:50.024Z,13.88
2019-04-28T05:24:36.654Z,15.60
2019-04-28T05:27:06.619Z,15.78
2019-04-28T05:29:36.551Z,16.52
2019-04-28T05:32:06.380Z,17.37
2019-04-28T05:34:41.511Z,15.90
2019-04-28T05:37:07.975Z,12.95
2019-04-28T05:39:40.326Z,12.65
2019-04-28T05:42:11.304Z,14.40
2019-04-28T05:44:41.324Z,16.62
2019-04-28T05:47:11.240Z,14.43
2019-04-28T05:49:49.820Z,16.17
2019-04-28T05:52:34.043Z,13.15
2019-04-28T05:55:07.346Z,13.05
2019-04-28T05:57:39.779Z,16.12
2019-04-28T06:00:23.363Z,16.62
2019-04-28T06:02:56.872Z,18.48
2019-04-28T06:05:26.802Z,15.95
2019-04-28T06:08:02.491Z,17.42
2019-04-28T06:10:34.057Z,19.57
2019-04-28T06:13:03.960Z,15.55
2019-04-28T06:15:35.331Z,21.15
2019-04-28T06:18:05.160Z,21.00
2019-04-28T06:20:37.658Z,16.45
2019-04-28T06:23:09.895Z,17.32
2019-04-28T06:25:41.306Z,20.82
2019-04-28T06:28:11.110Z,18.23
2019-04-28T06:30:42.467Z,18.45
2019-04-28T06:33:12.506Z,18.70
2019-04-28T06:35:42.259Z,17.40
2019-04-28T06:38:12.381Z,22.60
2019-04-28T06:40:42.302Z,17.55
2019-04-28T06:43:12.143Z,17.15
2019-04-28T06:45:42.101Z,19.85
2019-04-28T06:48:11.918Z,19.32
2019-04-28T06:50:41.761Z,18.40
2019-04-28T06:53:11.574Z,20.63
2019-04-28T06:55:42.440Z,18.05
2019-04-28T06:58:12.397Z,20.20
2019-04-28T07:00:43.664Z,21.42
2019-04-28T07:03:22.939Z,22.17
2019-04-28T07:05:45.098Z,19.02
2019-04-28T07:08:15.044Z,18.25
2019-04-28T07:10:44.861Z,22.35
2019-04-28T07:13:14.627Z,23.40
2019-04-28T07:15:44.442Z,25.17
2019-04-28T07:18:14.354Z,22.15
2019-04-28T07:20:45.863Z,40.25
2019-04-28T07:23:15.782Z,28.60
2019-04-28T07:25:45.619Z,29.20
2019-04-28T07:28:15.531Z,22.70
2019-04-28T07:30:45.483Z,27.52
2019-04-28T07:33:17.023Z,27.27
2019-04-28T07:35:46.931Z,22.65
2019-04-28T07:38:16.704Z,22.80
2019-04-28T07:40:47.641Z,22.73
2019-04-28T07:43:17.397Z,22.42
2019-04-28T07:45:47.258Z,17.50
2019-04-28T07:48:17.145Z,14.60
2019-04-28T07:50:47.021Z,18.07
2019-04-28T07:53:24.522Z,14.28
2019-04-28T07:55:54.362Z,16.48
2019-04-28T07:58:25.191Z,19.20
2019-04-28T08:00:55.119Z,15.08
2019-04-28T08:03:24.948Z,13.85
2019-04-28T08:05:54.896Z,15.53
2019-04-28T08:08:24.727Z,16.50
2019-04-28T08:10:54.566Z,12.30
2019-04-28T08:13:24.422Z,11.12
2019-04-28T08:15:54.321Z,10.45
2019-04-28T08:18:24.194Z,8.48
2019-04-28T08:20:54.206Z,9.13
2019-04-28T08:23:24.423Z,12.80
2019-04-28T08:25:54.335Z,11.35
2019-04-28T08:28:24.190Z,9.70
2019-04-28T08:30:55.109Z,11.30
2019-04-28T08:33:35.499Z,11.78
2019-04-28T08:38:34.332Z,7.85
2019-04-28T08:41:04.251Z,7.53
2019-04-28T08:43:34.334Z,8.40
2019-04-28T08:46:04.292Z,12.47
2019-04-28T08:48:34.193Z,10.48
2019-04-28T08:51:04.430Z,7.00
2019-04-28T08:53:34.286Z,8.45
2019-04-28T08:56:04.433Z,9.28
2019-04-28T08:58:34.285Z,9.25
2019-04-28T09:01:04.275Z,10.72
2019-04-28T09:03:34.237Z,8.45
2019-04-28T09:06:04.135Z,6.40
2019-04-28T09:08:34.039Z,7.40
2019-04-28T09:11:04.080Z,7.37
2019-04-28T09:13:33.906Z,11.18
2019-04-28T09:16:03.666Z,8.18
2019-04-28T09:18:33.424Z,9.40
2019-04-28T09:21:04.177Z,11.18
2019-04-28T09:23:34.248Z,10.00
2019-04-28T09:26:04.156Z,7.42
2019-04-28T09:28:34.054Z,8.45
2019-04-28T09:31:05.332Z,9.98
2019-04-28T09:36:04.107Z,9.05
2019-04-28T09:38:34.031Z,9.45
2019-04-28T09:41:03.923Z,9.53
2019-04-28T09:43:53.540Z,7.05
2019-04-28T09:46:24.986Z,9.08
2019-04-28T09:48:54.843Z,8.08
2019-04-28T09:51:24.669Z,6.12
2019-04-28T09:53:54.506Z,8.63
2019-04-28T09:56:24.380Z,7.50
2019-04-28T09:58:54.130Z,10.23
2019-04-28T10:01:24.051Z,10.90
2019-04-28T10:03:53.897Z,5.87
2019-04-28T10:06:23.770Z,8.83
2019-04-28T10:08:53.550Z,7.28
2019-04-28T10:11:30.346Z,8.95
2019-04-28T10:13:57.016Z,9.75
2019-04-28T10:16:26.572Z,7.95
2019-04-28T10:18:56.493Z,12.78
2019-04-28T10:21:26.236Z,8.10
2019-04-28T10:23:56.247Z,7.20
2019-04-28T10:26:26.055Z,9.23
2019-04-28T10:28:55.982Z,11.83
2019-04-28T10:31:25.859Z,10.75
2019-04-28T10:33:57.359Z,8.38
2019-04-28T10:36:28.856Z,8.03
2019-04-28T10:39:01.332Z,8.70
2019-04-28T10:41:34.371Z,9.18
2019-04-28T10:44:04.267Z,14.93
2019-04-28T10:46:34.181Z,8.43
2019-04-28T10:49:04.141Z,8.80
2019-04-28T10:51:33.907Z,7.80
2019-04-28T10:54:03.802Z,8.50
2019-04-28T10:56:33.678Z,10.35
2019-04-28T10:59:03.808Z,8.78
2019-04-28T11:01:33.723Z,8.75
2019-04-28T11:04:14.071Z,7.08
2019-04-28T11:06:43.897Z,8.08
2019-04-28T11:09:33.330Z,8.28
2019-04-28T11:12:04.706Z,8.58
2019-04-28T11:14:34.635Z,8.10
2019-04-28T11:17:04.491Z,7.00
2019-04-28T11:19:34.331Z,7.62
2019-04-28T11:22:04.267Z,8.38
2019-04-28T11:24:35.314Z,9.55
2019-04-28T11:27:05.257Z,8.25
2019-04-28T11:29:35.145Z,6.67
2019-04-28T11:32:05.165Z,11.60
2019-04-28T11:34:42.621Z,9.35
2019-04-28T11:37:12.779Z,12.58
2019-04-28T11:39:44.184Z,10.43
2019-04-28T11:42:14.087Z,16.50
2019-04-28T11:44:43.992Z,14.13
2019-04-28T11:47:15.393Z,18.82
2019-04-28T11:49:45.310Z,12.23
2019-04-28T11:52:15.339Z,14.30
2019-04-28T11:54:45.246Z,12.03
2019-04-28T11:57:15.072Z,11.75
2019-04-28T11:59:44.902Z,13.13
2019-04-28T12:02:14.831Z,13.70
2019-04-28T12:04:44.797Z,11.12
2019-04-28T12:07:14.698Z,11.10
2019-04-28T12:09:49.218Z,16.02
2019-04-28T12:12:26.737Z,9.75
2019-04-28T12:15:07.340Z,18.30
2019-04-28T12:17:54.509Z,12.18
2019-04-28T12:20:25.899Z,10.03
2019-04-28T12:22:55.819Z,10.93
2019-04-28T12:25:25.713Z,10.75
2019-04-28T12:27:55.655Z,10.45
2019-04-28T12:30:25.503Z,13.35
2019-04-28T12:32:55.283Z,11.78
2019-04-28T12:35:25.040Z,9.00
2019-04-28T12:37:54.881Z,11.43
2019-04-28T12:40:24.707Z,12.35
2019-04-28T12:42:54.590Z,11.90
2019-04-28T12:45:34.544Z,10.82
2019-04-28T12:47:56.005Z,7.97
2019-04-28T12:50:27.464Z,9.35
2019-04-28T12:52:57.325Z,8.20
2019-04-28T12:55:27.148Z,11.63
2019-04-28T12:57:57.049Z,8.68
2019-04-28T13:00:34.397Z,14.95
2019-04-28T13:03:14.721Z,14.50
2019-04-28T13:06:01.159Z,17.40
2019-04-28T13:08:21.038Z,17.48
2019-04-28T13:10:51.173Z,18.10
2019-04-28T13:13:22.681Z,14.00
2019-04-28T13:15:52.516Z,16.32
2019-04-28T13:18:22.391Z,13.68
2019-04-28T13:20:52.229Z,19.10
2019-04-28T13:23:22.051Z,17.05
2019-04-28T13:25:52.056Z,11.97
2019-04-28T13:28:21.994Z,12.37
2019-04-28T13:30:51.881Z,12.03
2019-04-28T13:33:21.801Z,16.02
2019-04-28T13:35:51.663Z,15.78
2019-04-28T13:38:21.608Z,18.15
2019-04-28T13:40:51.363Z,15.05
2019-04-28T13:43:21.335Z,13.83
2019-04-28T13:45:51.223Z,20.30
2019-04-28T13:48:21.008Z,18.37
2019-04-28T13:50:50.935Z,20.48
2019-04-28T13:53:20.699Z,15.35
2019-04-28T13:55:52.275Z,14.65
2019-04-28T13:58:29.573Z,18.73
2019-04-28T14:01:06.753Z,15.05
2019-04-28T14:03:38.203Z,14.75
2019-04-28T14:06:28.658Z,21.55
2019-04-28T14:08:56.115Z,21.37
2019-04-28T14:11:26.107Z,17.45
2019-04-28T14:13:56.035Z,18.92
2019-04-28T14:16:26.034Z,20.72
2019-04-28T14:18:55.972Z,23.42
2019-04-28T14:21:25.774Z,22.10
2019-04-28T14:23:55.723Z,23.07
2019-04-28T14:26:25.554Z,17.05
2019-04-28T14:28:55.389Z,18.55
2019-04-28T14:31:25.234Z,17.05
2019-04-28T14:33:55.177Z,18.73
2019-04-28T14:36:25.036Z,14.90
2019-04-28T14:38:55.656Z,16.55
2019-04-28T14:41:25.453Z,18.82
2019-04-28T14:43:55.404Z,14.13
2019-04-28T14:46:25.401Z,31.50
2019-04-28T14:48:56.560Z,21.02
2019-04-28T14:51:26.477Z,16.70
2019-04-28T14:53:56.461Z,18.65
2019-04-28T14:56:26.355Z,21.55
2019-04-28T14:58:56.382Z,19.42
2019-04-28T15:01:42.739Z,24.20
2019-04-28T15:04:20.645Z,18.87
2019-04-28T15:06:55.799Z,21.30
2019-04-28T15:09:26.594Z,23.05
2019-04-28T15:11:58.134Z,20.77
2019-04-28T15:14:28.203Z,20.25
2019-04-28T15:16:58.113Z,18.50
2019-04-28T15:19:27.958Z,24.43
2019-04-28T15:21:57.845Z,17.82
2019-04-28T15:24:27.754Z,20.88
2019-04-28T15:26:57.725Z,15.80
2019-04-28T15:29:28.684Z,22.05
2019-04-28T15:31:59.180Z,23.47
2019-04-28T15:34:28.995Z,20.60
2019-04-28T15:37:09.169Z,25.45
2019-04-28T15:39:30.686Z,21.12
2019-04-28T15:42:00.701Z,22.70
2019-04-28T15:44:31.792Z,23.12
2019-04-28T15:47:01.683Z,35.03
2019-04-28T15:49:31.614Z,27.67
2019-04-28T15:52:03.377Z,16.40
2019-04-28T15:54:33.283Z,19.92
2019-04-28T15:57:03.351Z,17.10
2019-04-28T15:59:33.841Z,22.50
2019-04-28T16:04:33.684Z,19.62
2019-04-28T16:07:03.600Z,19.32
2019-04-28T16:09:33.537Z,19.02
2019-04-28T16:12:03.331Z,16.00
2019-04-28T16:14:33.382Z,21.35
2019-04-28T16:17:03.206Z,17.62
2019-04-28T16:19:34.116Z,16.50
2019-04-28T16:22:04.033Z,17.95
2019-04-28T16:24:33.982Z,25.70
2019-04-28T16:27:04.540Z,21.00
2019-04-28T16:29:34.467Z,23.18
2019-04-28T16:32:04.412Z,27.85
2019-04-28T16:34:34.333Z,38.80
2019-04-28T16:37:04.165Z,41.18
2019-04-28T16:39:34.075Z,41.95
2019-04-28T16:42:04.716Z,62.90
2019-04-28T16:47:13.674Z,45.17
2019-04-28T16:49:43.531Z,34.20
2019-04-28T16:52:13.453Z,40.58
2019-04-28T16:54:43.375Z,37.30
2019-04-28T16:57:23.911Z,26.80
2019-04-28T16:59:55.401Z,32.55
2019-04-28T17:02:26.823Z,31.90
2019-04-28T17:04:56.699Z,38.65
2019-04-28T17:07:26.809Z,39.18
2019-04-28T17:09:57.754Z,31.33
2019-04-28T17:12:27.748Z,36.25
2019-04-28T17:14:57.984Z,33.95
2019-04-28T17:17:29.157Z,33.05
2019-04-28T17:20:06.496Z,30.10
2019-04-28T17:22:36.947Z,26.15
2019-04-28T17:25:08.214Z,24.85
2019-04-28T17:27:38.065Z,29.15
2019-04-28T17:30:09.944Z,27.55
2019-04-28T17:32:39.900Z,28.15
2019-04-28T17:35:09.646Z,18.65
2019-04-28T17:37:39.949Z,14.85
2019-04-28T17:40:13.934Z,23.85
2019-04-28T17:42:43.936Z,19.73
2019-04-28T17:45:14.190Z,19.40
2019-04-28T17:47:44.329Z,26.50
2019-04-28T17:50:15.547Z,21.23
2019-04-28T17:52:45.676Z,21.33
2019-04-28T17:55:24.329Z,24.47
2019-04-28T17:57:57.863Z,29.10
2019-04-28T18:00:33.548Z,26.82
2019-04-28T18:03:17.056Z,23.32
2019-04-28T18:05:51.280Z,33.45
2019-04-28T18:08:21.588Z,27.58
2019-04-28T18:10:51.388Z,26.48
2019-04-28T18:13:21.388Z,29.70
2019-04-28T18:16:04.877Z,23.90
2019-04-28T18:18:37.707Z,24.32
2019-04-28T18:21:07.647Z,20.27
2019-04-28T18:23:37.592Z,19.07
2019-04-28T18:26:07.480Z,21.30
2019-04-28T18:28:37.329Z,16.75
2019-04-28T18:31:14.577Z,16.52
2019-04-28T18:34:01.995Z,18.20
2019-04-28T18:36:45.386Z,21.68
2019-04-28T18:39:26.088Z,18.37
2019-04-28T18:44:29.837Z,25.77
2019-04-28T18:46:59.786Z,23.00
2019-04-28T18:49:29.797Z,22.02
2019-04-28T18:51:59.714Z,22.85
2019-04-28T18:54:29.452Z,20.50
2019-04-28T18:56:59.334Z,25.85
2019-04-28T18:59:29.074Z,21.07
2019-04-28T19:02:06.955Z,19.00
2019-04-28T19:04:36.778Z,17.85
2019-04-28T19:07:08.294Z,15.60
2019-04-28T19:09:39.733Z,16.82
2019-04-28T19:12:14.222Z,23.55
2019-04-28T19:15:05.042Z,21.90
2019-04-28T19:17:49.856Z,22.30
2019-04-28T19:20:19.922Z,24.55
2019-04-28T19:22:49.995Z,26.33
2019-04-28T19:25:19.929Z,18.25
2019-04-28T19:27:49.846Z,15.23
2019-04-28T19:30:19.878Z,23.50
2019-04-28T19:32:49.816Z,13.78
2019-04-28T19:35:19.644Z,13.13
2019-04-28T19:37:49.461Z,16.60
2019-04-28T19:40:19.356Z,20.37
2019-04-28T19:42:49.254Z,13.83
2019-04-28T19:45:20.992Z,12.25
2019-04-28T19:50:19.882Z,15.30
2019-04-28T19:52:50.825Z,16.80
2019-04-28T19:55:22.314Z,15.85
2019-04-28T19:57:56.676Z,17.32
2019-04-28T20:00:28.160Z,16.00
2019-04-28T20:02:58.057Z,21.05
2019-04-28T20:05:29.446Z,14.78
2019-04-28T20:07:59.517Z,15.95
2019-04-28T20:10:29.434Z,21.50
2019-04-28T20:12:59.489Z,15.23
2019-04-28T20:15:29.415Z,15.05
2019-04-28T20:18:00.340Z,19.17
2019-04-28T20:20:31.420Z,19.70
2019-04-28T20:23:01.358Z,22.87
2019-04-28T20:25:32.762Z,19.02
2019-04-28T20:28:02.681Z,15.98
2019-04-28T20:30:32.506Z,14.87
2019-04-28T20:33:07.315Z,19.05
2019-04-28T20:35:35.703Z,16.97
2019-04-28T20:38:07.179Z,18.67
2019-04-28T20:40:44.480Z,16.35
2019-04-28T20:43:15.902Z,14.38
2019-04-28T20:45:45.792Z,19.35
2019-04-28T20:48:15.615Z,18.77
2019-04-28T20:50:45.432Z,15.95
2019-04-28T20:53:15.282Z,16.20
2019-04-28T20:55:45.164Z,17.52
2019-04-28T20:58:15.047Z,14.55
2019-04-28T21:00:44.840Z,19.32
2019-04-28T21:03:14.708Z,15.58
2019-04-28T21:05:44.596Z,16.60
2019-04-28T21:08:14.358Z,17.00
2019-04-28T21:10:44.281Z,18.75
2019-04-28T21:13:14.183Z,15.23
2019-04-28T21:15:44.015Z,12.73
2019-04-28T21:18:14.618Z,14.40
2019-04-28T21:23:13.379Z,16.12
2019-04-28T21:25:43.267Z,13.75
2019-04-28T21:28:12.951Z,15.48
2019-04-28T21:30:42.829Z,11.35
2019-04-28T21:33:12.691Z,12.13
2019-04-28T21:35:42.440Z,11.90
2019-04-28T21:38:12.343Z,13.18
2019-04-28T21:40:43.300Z,15.30
2019-04-28T21:43:17.487Z,14.20
2019-04-28T21:45:50.452Z,14.03
2019-04-28T21:48:40.176Z,12.18
2019-04-28T21:51:11.921Z,12.37
2019-04-28T21:53:41.549Z,11.65
2019-04-28T21:56:11.346Z,14.07
2019-04-28T21:58:41.161Z,12.13
2019-04-28T22:01:14.015Z,11.57
2019-04-28T22:03:44.037Z,11.63
2019-04-28T22:06:13.947Z,11.15
2019-04-28T22:08:43.752Z,10.48
2019-04-28T22:11:13.490Z,11.43
2019-04-28T22:13:43.240Z,13.55
2019-04-28T22:16:13.095Z,14.63
2019-04-28T22:18:42.834Z,13.28
2019-04-28T22:21:12.612Z,15.27
2019-04-28T22:23:56.186Z,13.87
2019-04-28T22:26:43.566Z,12.07
2019-04-28T22:29:14.099Z,12.40
2019-04-28T22:31:45.397Z,10.50
2019-04-28T22:34:15.385Z,10.28
2019-04-28T22:36:46.535Z,13.50
2019-04-28T22:39:17.181Z,10.68
2019-04-28T22:44:16.001Z,11.55
2019-04-28T22:46:45.768Z,12.58
2019-04-28T22:49:15.586Z,10.03
2019-04-28T22:51:45.522Z,11.08
2019-04-28T22:54:25.615Z,15.18
2019-04-28T22:56:57.069Z,13.80
2019-04-28T22:59:28.379Z,13.62
2019-04-28T23:02:05.770Z,13.83
2019-04-28T23:04:43.178Z,12.37
2019-04-28T23:07:13.550Z,12.20
2019-04-28T23:09:43.419Z,14.53
2019-04-28T23:12:13.509Z,11.20
2019-04-28T23:14:43.278Z,12.70
2019-04-28T23:17:14.724Z,13.22
2019-04-28T23:19:44.614Z,12.75
2019-04-28T23:22:19.385Z,13.00
2019-04-28T23:24:49.323Z,12.15
2019-04-28T23:27:19.150Z,14.90
2019-04-28T23:29:48.898Z,12.60
2019-04-28T23:32:18.788Z,14.37
2019-04-28T23:34:48.687Z,11.78
2019-04-28T23:37:18.586Z,13.03
2019-04-28T23:39:48.435Z,16.00
2019-04-28T23:42:19.806Z,10.65
2019-04-28T23:44:49.704Z,13.85
2019-04-28T23:47:19.573Z,10.88
2019-04-28T23:49:49.332Z,10.53
2019-04-28T23:52:20.710Z,13.20
2019-04-28T23:54:55.055Z,11.10
2019-04-28T23:57:24.937Z,17.20
2019-04-28T23:59:54.696Z,10.20
